createdAt,value
2023-03-26T00:01:47.264Z,86.08
2023-03-26T00:04:19.795Z,85.85
2023-03-26T00:06:50.449Z,85.89
2023-03-26T00:09:20.816Z,85.86
2023-03-26T00:11:53.110Z,85.54
2023-03-26T00:14:22.818Z,85.32
2023-03-26T00:16:53.910Z,85.27
2023-03-26T00:19:23.631Z,85.25
2023-03-26T00:21:53.455Z,84.85
2023-03-26T00:24:30.028Z,84.80
2023-03-26T00:27:02.373Z,84.98
2023-03-26T00:29:33.369Z,84.77
2023-03-26T00:32:03.186Z,84.94
2023-03-26T00:34:34.540Z,84.83
2023-03-26T00:37:04.356Z,84.78
2023-03-26T00:39:37.529Z,84.58
2023-03-26T00:42:10.086Z,84.48
2023-03-26T00:44:39.764Z,84.44
2023-03-26T00:47:09.504Z,84.42
2023-03-26T00:49:39.512Z,84.59
2023-03-26T00:52:09.374Z,84.36
2023-03-26T00:54:39.316Z,84.35
2023-03-26T00:57:18.186Z,84.30
2023-03-26T00:59:52.712Z,84.53
2023-03-26T01:02:23.244Z,84.23
2023-03-26T01:04:56.993Z,84.25
2023-03-26T01:07:29.085Z,84.39
2023-03-26T01:10:00.646Z,84.33
2023-03-26T01:12:34.713Z,84.30
2023-03-26T01:15:05.293Z,84.37
2023-03-26T01:17:38.030Z,84.34
2023-03-26T01:20:15.263Z,84.38
2023-03-26T01:22:49.058Z,84.47
2023-03-26T01:25:21.806Z,84.49
2023-03-26T01:27:52.828Z,84.37
2023-03-26T01:30:26.967Z,84.67
2023-03-26T01:32:58.386Z,84.40
2023-03-26T01:35:35.889Z,84.32
2023-03-26T01:38:18.657Z,84.55
2023-03-26T01:40:53.301Z,84.62
2023-03-26T01:43:28.820Z,84.55
2023-03-26T01:45:59.507Z,84.69
2023-03-26T01:48:34.337Z,84.62
2023-03-26T01:51:04.064Z,84.97
2023-03-26T01:53:34.107Z,85.13
2023-03-26T01:56:13.778Z,85.45
2023-03-26T01:58:52.689Z,85.08
2023-03-26T02:01:27.353Z,85.40
2023-03-26T02:04:02.634Z,85.30
2023-03-26T02:06:37.537Z,85.26
2023-03-26T02:09:09.167Z,84.88
2023-03-26T02:11:42.762Z,84.88
2023-03-26T02:14:12.701Z,84.95
2023-03-26T02:16:46.435Z,84.97
2023-03-26T02:19:21.934Z,84.67
2023-03-26T02:21:59.809Z,84.86
2023-03-26T02:24:30.909Z,84.96
2023-03-26T02:27:03.860Z,84.76
2023-03-26T02:29:37.860Z,84.77
2023-03-26T02:32:08.505Z,84.63
2023-03-26T02:34:38.396Z,84.38
2023-03-26T02:37:08.163Z,84.24
2023-03-26T02:39:39.073Z,84.37
2023-03-26T02:42:25.634Z,84.73
2023-03-26T02:44:55.455Z,84.92
2023-03-26T02:47:48.005Z,85.15
2023-03-26T02:50:38.042Z,85.25
2023-03-26T02:53:29.943Z,85.46
2023-03-26T02:56:17.695Z,85.57
2023-03-26T02:59:03.325Z,86.03
2023-03-26T03:01:35.195Z,85.99
2023-03-26T03:04:08.454Z,86.34
2023-03-26T03:06:39.042Z,86.76
2023-03-26T03:09:09.353Z,86.82
2023-03-26T03:11:39.500Z,87.17
2023-03-26T03:14:13.180Z,87.50
2023-03-26T03:16:42.905Z,87.55
2023-03-26T03:19:14.287Z,87.81
2023-03-26T03:21:44.880Z,87.83
2023-03-26T03:24:18.651Z,87.84
2023-03-26T03:26:55.149Z,88.05
2023-03-26T03:29:53.754Z,87.86
2023-03-26T03:32:58.450Z,87.87
2023-03-26T03:35:29.784Z,87.95
2023-03-26T03:38:02.131Z,88.09
2023-03-26T03:40:36.941Z,87.85
2023-03-26T03:43:06.661Z,87.86
2023-03-26T03:45:47.575Z,87.91
2023-03-26T03:48:39.210Z,87.67
2023-03-26T03:51:10.773Z,87.57
2023-03-26T03:53:49.839Z,87.27
2023-03-26T03:56:30.002Z,87.28
2023-03-26T03:59:25.980Z,86.89
2023-03-26T04:01:58.474Z,86.87
2023-03-26T04:04:50.368Z,86.78
2023-03-26T04:07:22.364Z,86.60
2023-03-26T04:10:13.048Z,86.26
2023-03-26T04:13:11.333Z,85.97
2023-03-26T04:16:04.044Z,86.02
2023-03-26T04:18:36.840Z,85.87
2023-03-26T04:21:12.853Z,85.75
2023-03-26T04:23:42.671Z,85.81
2023-03-26T04:26:23.747Z,85.87
2023-03-26T04:29:25.808Z,85.74
2023-03-26T04:31:59.072Z,85.62
2023-03-26T04:34:32.492Z,85.83
2023-03-26T04:37:12.322Z,85.94
2023-03-26T04:39:48.214Z,85.77
2023-03-26T04:42:37.716Z,85.76
2023-03-26T04:45:15.407Z,85.94
2023-03-26T04:47:48.781Z,85.94
2023-03-26T04:50:21.287Z,86.01
2023-03-26T04:52:51.244Z,86.17
2023-03-26T04:56:02.111Z,86.41
2023-03-26T04:59:02.072Z,86.59
2023-03-26T05:01:38.064Z,86.48
2023-03-26T05:04:08.944Z,86.84
2023-03-26T05:06:41.956Z,86.90
2023-03-26T05:09:22.099Z,87.13
2023-03-26T05:12:11.235Z,87.29
2023-03-26T05:14:54.937Z,87.27
2023-03-26T05:17:41.889Z,87.38
2023-03-26T05:20:21.310Z,87.41
2023-03-26T05:22:53.949Z,87.40
2023-03-26T05:25:30.609Z,87.51
2023-03-26T05:28:01.539Z,87.60
2023-03-26T05:30:41.587Z,87.59
2023-03-26T05:33:11.678Z,87.62
2023-03-26T05:36:02.230Z,87.73
2023-03-26T05:38:37.214Z,87.47
2023-03-26T05:41:11.159Z,87.54
2023-03-26T05:43:45.009Z,87.55
2023-03-26T05:46:20.473Z,87.49
2023-03-26T05:48:51.981Z,87.62
2023-03-26T05:51:23.528Z,87.69
2023-03-26T05:54:16.057Z,87.45
2023-03-26T05:57:04.111Z,87.61
2023-03-26T05:59:53.019Z,87.51
2023-03-26T06:02:42.917Z,87.51
2023-03-26T06:05:37.392Z,87.49
2023-03-26T06:08:12.727Z,87.63
2023-03-26T06:10:45.522Z,87.68
2023-03-26T06:13:16.327Z,87.30
2023-03-26T06:15:46.770Z,87.53
2023-03-26T06:18:37.868Z,87.47
2023-03-26T06:21:26.440Z,87.33
2023-03-26T06:24:02.612Z,87.42
2023-03-26T06:26:44.028Z,87.50
2023-03-26T06:29:39.554Z,87.58
2023-03-26T06:32:20.042Z,87.62
2023-03-26T06:34:55.277Z,87.75
2023-03-26T06:37:25.094Z,87.99
2023-03-26T06:40:00.413Z,88.14
2023-03-26T06:43:10.934Z,88.53
2023-03-26T06:45:52.907Z,88.73
2023-03-26T06:48:40.995Z,88.75
2023-03-26T06:51:43.706Z,89.02
2023-03-26T06:54:39.525Z,89.38
2023-03-26T06:57:30.584Z,89.50
2023-03-26T07:00:22.607Z,89.94
2023-03-26T07:03:11.640Z,90.13
2023-03-26T07:05:59.850Z,90.39
2023-03-26T07:08:48.073Z,90.56
2023-03-26T07:11:55.930Z,90.79
2023-03-26T07:14:46.360Z,91.11
2023-03-26T07:17:37.464Z,91.50
2023-03-26T07:20:15.702Z,92.02
2023-03-26T07:22:46.374Z,92.51
2023-03-26T07:25:20.631Z,92.82
2023-03-26T07:28:33.306Z,92.84
2023-03-26T07:31:43.241Z,93.32
2023-03-26T07:34:50.208Z,93.33
2023-03-26T07:37:47.086Z,93.77
2023-03-26T07:40:49.875Z,93.77
2023-03-26T07:44:03.356Z,93.99
2023-03-26T07:47:26.382Z,93.97
2023-03-26T07:50:22.698Z,94.20
2023-03-26T07:53:01.940Z,94.25
2023-03-26T07:55:59.156Z,94.22
2023-03-26T07:58:51.149Z,94.50
2023-03-26T08:01:58.444Z,94.73
2023-03-26T08:05:01.052Z,95.02
2023-03-26T08:08:06.361Z,95.01
2023-03-26T08:10:46.745Z,94.98
2023-03-26T08:13:26.151Z,95.07
2023-03-26T08:15:59.289Z,95.52
2023-03-26T08:18:38.937Z,95.60
2023-03-26T08:21:14.207Z,95.55
2023-03-26T08:23:54.060Z,95.65
2023-03-26T08:26:31.899Z,95.73
2023-03-26T08:29:07.602Z,95.91
2023-03-26T08:31:40.177Z,95.94
2023-03-26T08:34:13.120Z,95.99
2023-03-26T08:36:43.071Z,95.93
2023-03-26T08:39:15.554Z,96.03
2023-03-26T08:42:20.503Z,96.31
2023-03-26T08:45:17.656Z,96.38
2023-03-26T08:48:20.810Z,96.34
2023-03-26T08:51:17.592Z,96.70
2023-03-26T08:54:11.423Z,96.49
2023-03-26T08:56:52.665Z,96.81
2023-03-26T09:00:01.399Z,96.89
2023-03-26T09:03:19.834Z,96.58
2023-03-26T09:06:19.194Z,96.45
2023-03-26T09:09:20.840Z,96.63
2023-03-26T09:12:04.927Z,96.67
2023-03-26T09:15:02.441Z,96.49
2023-03-26T09:17:50.505Z,96.78
2023-03-26T09:21:11.039Z,96.86
2023-03-26T09:23:58.911Z,96.94
2023-03-26T09:26:30.146Z,96.99
2023-03-26T09:29:36.230Z,96.69
2023-03-26T09:32:25.574Z,96.62
2023-03-26T09:35:16.025Z,96.70
2023-03-26T09:37:58.617Z,96.79
2023-03-26T09:40:39.806Z,96.76
2023-03-26T09:43:30.315Z,96.45
2023-03-26T09:46:11.284Z,96.60
2023-03-26T09:49:09.751Z,96.50
2023-03-26T09:51:47.145Z,96.33
2023-03-26T09:54:44.509Z,96.25
2023-03-26T09:57:24.589Z,96.21
2023-03-26T10:00:13.466Z,96.15
2023-03-26T10:02:52.129Z,96.22
2023-03-26T10:05:29.048Z,96.42
2023-03-26T10:08:32.766Z,96.30
2023-03-26T10:11:07.296Z,96.33
2023-03-26T10:13:43.911Z,96.20
2023-03-26T10:16:22.428Z,96.23
2023-03-26T10:19:02.450Z,96.25
2023-03-26T10:21:41.830Z,96.02
2023-03-26T10:24:26.799Z,96.17
2023-03-26T10:27:18.071Z,96.06
2023-03-26T10:30:04.179Z,96.47
2023-03-26T10:32:38.094Z,96.33
2023-03-26T10:35:15.589Z,96.49
2023-03-26T10:37:57.478Z,96.78
2023-03-26T10:40:30.528Z,96.76
2023-03-26T10:43:22.477Z,96.94
2023-03-26T10:46:37.348Z,97.08
2023-03-26T10:49:39.909Z,97.06
2023-03-26T10:52:10.578Z,97.14
2023-03-26T10:54:52.588Z,97.09
2023-03-26T10:57:30.401Z,97.21
2023-03-26T11:00:01.102Z,97.18
2023-03-26T11:02:32.440Z,97.32
2023-03-26T11:05:18.535Z,97.08
2023-03-26T11:07:54.061Z,97.09
2023-03-26T11:10:29.461Z,97.26
2023-03-26T11:13:02.999Z,97.27
2023-03-26T11:15:38.828Z,97.09
2023-03-26T11:18:15.540Z,97.20
2023-03-26T11:20:50.427Z,97.13
2023-03-26T11:23:37.534Z,97.16
2023-03-26T11:26:20.494Z,96.93
2023-03-26T11:29:31.452Z,97.04
2023-03-26T11:32:01.265Z,97.00
2023-03-26T11:34:35.815Z,97.10
2023-03-26T11:37:09.864Z,97.10
2023-03-26T11:39:45.858Z,97.04
2023-03-26T11:42:20.161Z,97.17
2023-03-26T11:44:53.298Z,97.07
2023-03-26T11:47:25.999Z,97.21
2023-03-26T11:49:57.990Z,97.00
2023-03-26T11:52:28.548Z,97.22
2023-03-26T11:54:58.687Z,97.19
2023-03-26T11:57:33.449Z,97.09
2023-03-26T12:00:08.621Z,96.33
2023-03-26T12:02:43.160Z,95.86
2023-03-26T12:05:21.474Z,95.74
2023-03-26T12:07:56.940Z,95.73
2023-03-26T12:10:29.647Z,95.48
2023-03-26T12:13:04.429Z,95.12
2023-03-26T12:15:34.300Z,94.55
2023-03-26T12:18:23.628Z,94.61
2023-03-26T12:21:05.450Z,94.10
2023-03-26T12:23:42.606Z,93.89
2023-03-26T12:26:17.753Z,93.88
2023-03-26T12:28:52.126Z,93.65
2023-03-26T12:31:22.121Z,93.60
2023-03-26T12:34:08.459Z,93.38
2023-03-26T12:36:39.164Z,93.28
2023-03-26T12:40:06.971Z,93.05
2023-03-26T12:44:48.634Z,92.86
2023-03-26T12:45:27.572Z,93.01
2023-03-26T12:48:03.457Z,92.52
2023-03-26T12:50:48.240Z,92.50
2023-03-26T12:53:40.770Z,92.16
2023-03-26T12:56:17.507Z,92.02
2023-03-26T12:59:05.955Z,92.03
2023-03-26T13:01:47.451Z,91.58
2023-03-26T13:04:35.952Z,91.43
2023-03-26T13:07:13.512Z,91.49
2023-03-26T13:09:52.867Z,91.38
2023-03-26T13:12:34.156Z,90.84
2023-03-26T13:15:16.755Z,90.64
2023-03-26T13:17:54.166Z,90.63
2023-03-26T13:20:29.660Z,90.79
2023-03-26T13:23:04.389Z,90.55
2023-03-26T13:25:39.571Z,90.66
2023-03-26T13:28:24.838Z,90.24
2023-03-26T13:31:01.963Z,90.51
2023-03-26T13:33:52.206Z,90.59
2023-03-26T13:36:27.496Z,89.70
2023-03-26T13:39:07.721Z,90.05
2023-03-26T13:41:48.228Z,90.02
2023-03-26T13:44:26.506Z,89.75
2023-03-26T13:46:58.462Z,89.94
2023-03-26T13:49:37.424Z,89.85
2023-03-26T13:52:11.181Z,89.45
2023-03-26T13:54:44.976Z,89.61
2023-03-26T13:57:20.291Z,88.90
2023-03-26T13:59:54.020Z,88.92
2023-03-26T14:02:28.386Z,89.04
2023-03-26T14:05:04.852Z,88.98
2023-03-26T14:07:39.245Z,89.23
2023-03-26T14:10:12.594Z,89.62
2023-03-26T14:12:49.555Z,89.74
2023-03-26T14:15:25.931Z,90.02
2023-03-26T14:17:56.644Z,89.76
2023-03-26T14:21:02.103Z,89.99
2023-03-26T14:23:46.218Z,89.61
2023-03-26T14:26:25.264Z,88.79
2023-03-26T14:29:07.771Z,88.65
2023-03-26T14:31:39.653Z,88.66
2023-03-26T14:34:33.294Z,87.91
2023-03-26T14:37:29.089Z,88.11
2023-03-26T14:40:17.530Z,88.06
2023-03-26T14:42:56.669Z,87.88
2023-03-26T14:45:46.646Z,87.47
2023-03-26T14:48:33.800Z,87.41
2023-03-26T14:51:15.942Z,86.87
2023-03-26T14:53:48.225Z,86.16
2023-03-26T14:56:46.996Z,85.72
2023-03-26T15:00:02.269Z,86.03
2023-03-26T15:02:56.773Z,86.11
2023-03-26T15:05:56.437Z,86.02
2023-03-26T15:08:54.648Z,85.51
2023-03-26T15:11:34.627Z,85.26
2023-03-26T15:14:24.976Z,85.49
2023-03-26T15:17:37.166Z,85.54
2023-03-26T15:20:37.559Z,85.71
2023-03-26T15:23:42.935Z,85.78
2023-03-26T15:26:32.057Z,85.73
2023-03-26T15:29:11.289Z,85.51
2023-03-26T15:32:06.187Z,85.33
2023-03-26T15:35:00.167Z,85.36
2023-03-26T15:37:59.700Z,85.28
2023-03-26T15:40:36.808Z,85.49
2023-03-26T15:43:14.081Z,85.76
2023-03-26T15:45:45.391Z,85.67
2023-03-26T15:48:37.757Z,85.58
2023-03-26T15:51:46.467Z,85.90
2023-03-26T15:54:25.704Z,85.98
2023-03-26T15:57:18.434Z,85.97
2023-03-26T16:00:02.124Z,86.30
2023-03-26T16:02:50.284Z,86.23
2023-03-26T16:05:34.041Z,86.29
2023-03-26T16:08:10.806Z,86.35
2023-03-26T16:10:44.836Z,86.54
2023-03-26T16:13:35.055Z,86.93
2023-03-26T16:16:28.961Z,87.06
2023-03-26T16:19:01.195Z,87.14
2023-03-26T16:21:48.979Z,87.19
2023-03-26T16:24:25.933Z,87.67
2023-03-26T16:27:09.093Z,87.96
2023-03-26T16:30:10.002Z,88.53
2023-03-26T16:32:43.729Z,88.91
2023-03-26T16:35:38.801Z,89.60
2023-03-26T16:38:13.970Z,89.84
2023-03-26T16:41:02.820Z,90.31
2023-03-26T16:43:42.503Z,90.39
2023-03-26T16:46:23.651Z,90.53
2023-03-26T16:49:00.192Z,90.52
2023-03-26T16:51:40.163Z,90.74
2023-03-26T16:54:18.116Z,90.93
2023-03-26T16:56:51.712Z,90.83
2023-03-26T16:59:42.284Z,91.00
2023-03-26T17:02:23.366Z,90.82
2023-03-26T17:05:02.781Z,90.97
2023-03-26T17:07:40.880Z,91.02
2023-03-26T17:10:18.634Z,91.13
2023-03-26T17:12:54.355Z,91.17
2023-03-26T17:15:32.614Z,91.33
2023-03-26T17:18:16.438Z,91.21
2023-03-26T17:20:59.728Z,91.27
2023-03-26T17:23:35.997Z,91.73
2023-03-26T17:26:22.734Z,91.83
2023-03-26T17:29:05.867Z,91.97
2023-03-26T17:31:44.052Z,92.17
2023-03-26T17:34:35.590Z,92.50
2023-03-26T17:37:14.660Z,92.69
2023-03-26T17:40:37.919Z,92.98
2023-03-26T17:43:12.632Z,93.24
2023-03-26T17:45:44.175Z,93.16
2023-03-26T17:48:35.709Z,93.36
2023-03-26T17:51:07.194Z,93.31
2023-03-26T17:53:40.385Z,92.92
2023-03-26T17:56:16.862Z,92.40
2023-03-26T17:58:49.114Z,92.25
2023-03-26T18:01:26.016Z,92.39
2023-03-26T18:04:00.154Z,91.91
2023-03-26T18:06:36.503Z,91.69
2023-03-26T18:09:16.302Z,91.81
2023-03-26T18:11:56.725Z,91.67
2023-03-26T18:14:50.974Z,91.53
2023-03-26T18:17:20.945Z,91.43
2023-03-26T18:19:52.620Z,91.46
2023-03-26T18:22:27.839Z,91.83
2023-03-26T18:25:02.508Z,91.88
2023-03-26T18:27:38.995Z,91.77
2023-03-26T18:30:18.246Z,91.73
2023-03-26T18:33:00.180Z,91.80
2023-03-26T18:35:42.763Z,91.71
2023-03-26T18:38:17.098Z,91.13
2023-03-26T18:40:50.009Z,90.91
2023-03-26T18:43:34.126Z,90.72
2023-03-26T18:46:06.456Z,90.25
2023-03-26T18:48:36.272Z,90.31
2023-03-26T18:51:07.794Z,89.81
2023-03-26T18:53:40.870Z,89.50
2023-03-26T18:56:31.812Z,89.22
2023-03-26T18:59:02.651Z,89.18
2023-03-26T19:01:34.146Z,88.96
2023-03-26T19:04:06.725Z,88.81
2023-03-26T19:06:38.380Z,88.15
2023-03-26T19:09:23.839Z,87.62
2023-03-26T19:12:07.287Z,87.46
2023-03-26T19:14:43.100Z,87.53
2023-03-26T19:17:14.424Z,86.74
2023-03-26T19:19:44.439Z,86.67
2023-03-26T19:22:14.456Z,86.47
2023-03-26T19:24:44.521Z,86.16
2023-03-26T19:27:16.855Z,85.46
2023-03-26T19:29:47.201Z,85.27
2023-03-26T19:32:20.398Z,85.20
2023-03-26T19:34:51.473Z,84.60
2023-03-26T19:37:25.835Z,84.11
2023-03-26T19:39:58.735Z,83.95
2023-03-26T19:42:42.889Z,83.85
2023-03-26T19:45:18.882Z,83.90
2023-03-26T19:47:57.370Z,83.89
2023-03-26T19:50:32.095Z,84.11
2023-03-26T19:53:16.748Z,84.32
2023-03-26T19:55:56.593Z,84.30
2023-03-26T19:58:30.045Z,84.12
2023-03-26T20:01:00.011Z,84.33
2023-03-26T20:03:31.952Z,84.11
2023-03-26T20:06:01.754Z,84.15
2023-03-26T20:08:31.550Z,83.81
2023-03-26T20:11:01.484Z,83.54
2023-03-26T20:13:33.813Z,82.83
2023-03-26T20:16:12.110Z,82.65
2023-03-26T20:18:42.490Z,82.46
2023-03-26T20:21:13.784Z,82.48
2023-03-26T20:23:44.144Z,82.32
2023-03-26T20:26:15.692Z,82.11
2023-03-26T20:28:52.727Z,82.10
2023-03-26T20:31:26.387Z,82.19
2023-03-26T20:33:57.709Z,82.16
2023-03-26T20:36:33.111Z,81.91
2023-03-26T20:39:06.723Z,82.03
2023-03-26T20:41:38.230Z,81.98
2023-03-26T20:44:15.851Z,81.79
2023-03-26T20:46:45.902Z,81.64
2023-03-26T20:49:15.983Z,81.63
2023-03-26T20:51:46.937Z,81.00
2023-03-26T20:54:19.068Z,80.62
2023-03-26T20:56:49.446Z,80.75
2023-03-26T20:59:26.847Z,80.52
2023-03-26T21:01:58.171Z,80.60
2023-03-26T21:04:28.747Z,80.22
2023-03-26T21:07:06.978Z,79.90
2023-03-26T21:09:41.607Z,78.97
2023-03-26T21:12:16.933Z,78.81
2023-03-26T21:14:49.842Z,78.11
2023-03-26T21:17:22.288Z,77.84
2023-03-26T21:19:52.832Z,77.77
2023-03-26T21:22:29.996Z,77.80
2023-03-26T21:25:06.328Z,77.76
2023-03-26T21:27:42.005Z,77.87
2023-03-26T21:30:17.833Z,77.73
2023-03-26T21:32:53.186Z,77.52
2023-03-26T21:35:23.854Z,77.25
2023-03-26T21:37:54.475Z,76.46
2023-03-26T21:40:24.630Z,76.05
2023-03-26T21:42:56.295Z,76.26
2023-03-26T21:45:30.132Z,76.12
2023-03-26T21:48:00.654Z,76.21
2023-03-26T21:50:31.561Z,76.43
2023-03-26T21:53:01.866Z,76.30
2023-03-26T21:55:32.214Z,76.48
2023-03-26T21:58:21.522Z,75.96
2023-03-26T22:01:06.478Z,75.46
2023-03-26T22:03:41.052Z,75.63
2023-03-26T22:06:14.836Z,75.67
2023-03-26T22:08:45.492Z,75.63
2023-03-26T22:11:15.343Z,75.63
2023-03-26T22:13:45.015Z,75.67
2023-03-26T22:16:17.399Z,75.98
2023-03-26T22:18:47.225Z,76.26
2023-03-26T22:21:16.920Z,76.21
2023-03-26T22:23:52.863Z,76.28
2023-03-26T22:26:23.721Z,76.28
2023-03-26T22:28:53.938Z,76.68
2023-03-26T22:31:26.567Z,76.89
2023-03-26T22:33:57.284Z,77.16
2023-03-26T22:36:27.665Z,77.58
2023-03-26T22:38:57.892Z,77.73
2023-03-26T22:41:29.640Z,78.21
2023-03-26T22:44:09.393Z,78.55
2023-03-26T22:46:47.484Z,78.90
2023-03-26T22:49:17.226Z,79.50
2023-03-26T22:51:46.924Z,79.45
2023-03-26T22:54:16.978Z,80.04
2023-03-26T22:56:46.796Z,80.39
2023-03-26T22:59:16.568Z,80.42
2023-03-26T23:01:48.856Z,81.07
2023-03-26T23:04:30.557Z,80.95
2023-03-26T23:07:01.908Z,81.43
2023-03-26T23:09:31.671Z,81.29
2023-03-26T23:12:01.460Z,81.71
2023-03-26T23:14:32.501Z,81.94
2023-03-26T23:17:05.320Z,81.83
2023-03-26T23:19:37.167Z,81.93
2023-03-26T23:22:06.848Z,82.11
2023-03-26T23:24:37.911Z,82.44
2023-03-26T23:27:07.956Z,82.25
2023-03-26T23:29:37.636Z,82.39
2023-03-26T23:32:23.365Z,82.70
2023-03-26T23:34:55.922Z,82.59
2023-03-26T23:37:26.873Z,82.94
2023-03-26T23:39:56.558Z,83.22
2023-03-26T23:42:28.634Z,83.29
2023-03-26T23:44:59.872Z,83.59
2023-03-26T23:47:35.066Z,83.52
2023-03-26T23:50:05.199Z,83.65
2023-03-26T23:52:34.903Z,83.72
2023-03-26T23:55:04.641Z,84.09
2023-03-26T23:57:34.373Z,84.14
